Time;durP1;ratioP1;P1;durP2;ratioP2;P2;SDS_P1;SDS_P2;PMS_P1;PMS_P2;Temp;Humidity;BMP_temperature;BMP_pressure;BME280_temperature;BME280_humidity;BME280_pressure;Samples;Min_cycle;Max_cycle;Signal;HPM_P1;HPM_P2
2022/02/20 00:01:42;;;;;;;;;34.00;30.50;;;;;4.30;61.55;99878.59;6276783;20;2500391;-47
2022/02/20 00:04:11;;;;;;;;;35.50;32.50;;;;;4.18;61.06;99877.19;6281494;20;2851562;-50
2022/02/20 00:06:39;;;;;;;;;29.00;28.00;;;;;4.39;60.99;99879.13;6279874;20;2500417;-44
2022/02/20 00:09:07;;;;;;;;;37.50;28.00;;;;;4.30;61.02;99875.94;6278305;20;2500262;-44
2022/02/20 00:11:36;;;;;;;;;33.00;25.00;;;;;4.53;60.15;99875.16;6281563;20;2861708;-45
2022/02/20 00:14:05;;;;;;;;;33.00;29.00;;;;;4.13;61.52;99872.03;6281880;20;2852368;-45
2022/02/20 00:16:33;;;;;;;;;31.50;24.50;;;;;4.45;59.92;99875.44;6282815;20;2838852;-48
2022/02/20 00:19:06;;;;;;;;;29.00;28.00;;;;;4.36;60.90;99881.03;6280887;20;2834659;-45
2022/02/20 00:21:34;;;;;;;;;34.00;26.00;;;;;4.59;59.68;99877.63;6282127;20;2860657;-43
2022/02/20 00:24:04;;;;;;;;;35.50;28.00;;;;;4.59;59.85;99875.81;6281439;20;2852396;-46
2022/02/20 00:26:32;;;;;;;;;31.00;27.00;;;;;4.57;59.51;99877.66;6280387;20;2852487;-45
2022/02/20 00:29:00;;;;;;;;;30.00;27.00;;;;;4.55;59.22;99878.63;6281488;20;2846330;-46
2022/02/20 00:31:28;;;;;;;;;27.33;24.33;;;;;4.79;58.15;99882.22;6280703;20;3579537;-44
2022/02/20 00:33:56;;;;;;;;;22.00;19.00;;;;;4.80;58.86;99887.50;6283593;20;2828782;-46
2022/02/20 00:36:25;;;;;;;;;20.00;17.33;;;;;4.96;57.45;99889.66;6281248;20;3557642;-44
2022/02/20 00:38:54;;;;;;;;;36.25;25.75;;;;;4.87;57.66;99888.19;6311501;20;3605469;-45
2022/02/20 00:41:22;;;;;;;;;29.50;28.00;;;;;4.90;57.65;99885.41;6308514;20;2500420;-47
2022/02/20 00:43:50;;;;;;;;;27.50;24.00;;;;;4.95;57.96;99872.81;6275841;20;2500289;-46
2022/02/20 00:46:18;;;;;;;;;26.00;23.00;;;;;4.80;58.03;99874.22;6279801;20;2500365;-45
2022/02/20 00:48:46;;;;;;;;;22.00;20.00;;;;;4.90;57.93;99869.44;6279002;20;2500258;-46
2022/02/20 00:51:14;;;;;;;;;30.00;21.50;;;;;4.57;59.15;99867.03;6280850;20;2489877;-44
2022/02/20 00:53:41;;;;;;;;;31.00;23.50;;;;;4.67;58.80;99862.25;6282559;20;2849235;-48
2022/02/20 00:56:10;;;;;;;;;30.67;21.33;;;;;4.39;58.86;99863.19;6281446;20;3584597;-45
2022/02/20 00:58:39;;;;;;;;;24.67;19.33;;;;;4.64;58.60;99862.38;6278369;20;3567929;-44
2022/02/20 01:01:08;;;;;;;;;30.00;21.67;;;;;4.54;58.13;99851.19;6307634;20;3587751;-46
2022/02/20 01:03:36;;;;;;;;;18.00;17.00;;;;;4.73;57.97;99850.53;6278124;20;2819128;-44
2022/02/20 01:06:04;;;;;;;;;20.67;17.00;;;;;4.73;57.61;99850.53;6279322;20;3558634;-46
2022/02/20 01:08:33;;;;;;;;;27.33;18.00;;;;;4.81;57.51;99861.78;6310135;20;3588826;-44
2022/02/20 01:11:02;;;;;;;;;20.67;17.00;;;;;4.89;56.97;99862.38;6282149;20;3565922;-45
2022/02/20 01:13:29;;;;;;;;;17.00;13.50;;;;;4.82;57.00;99860.88;6309205;20;2810662;-44
2022/02/20 01:15:57;;;;;;;;;19.00;14.00;;;;;4.79;57.37;99855.63;6281757;20;2808601;-46
2022/02/20 01:18:29;;;;;;;;;15.29;12.00;;;;;4.93;57.02;99853.38;6321271;20;1812791;-44
2022/02/20 01:20:56;;;;;;;;;10.00;7.00;;;;;5.10;56.32;99854.56;6311350;20;2758658;-44
2022/02/20 01:23:24;;;;;;;;;20.00;15.00;;;;;5.01;56.23;99845.97;6277638;20;2809663;-44
2022/02/20 01:25:52;;;;;;;;;17.00;13.00;;;;;4.97;56.84;99849.66;6274227;20;2798197;-45
2022/02/20 01:28:20;;;;;;;;;14.00;10.50;;;;;4.95;56.65;99846.22;6280612;20;2794000;-44
2022/02/20 01:30:48;;;;;;;;;13.50;11.00;;;;;5.02;56.42;99846.84;6279644;20;2787807;-45
2022/02/20 01:33:17;;;;;;;;;18.20;12.40;;;;;4.99;56.44;99845.16;6303444;20;2806566;-47
2022/02/20 01:35:46;;;;;;;;;14.00;9.50;;;;;5.01;55.77;99843.31;6280634;20;2782031;-47
2022/02/20 01:38:16;;;;;;;;;17.40;13.00;;;;;5.02;56.17;99837.06;6302497;20;2811732;-49
2022/02/20 01:40:47;;;;;;;;;14.60;13.60;;;;;4.87;55.97;99834.97;6308067;20;2790274;-49
2022/02/20 01:43:15;;;;;;;;;12.00;11.00;;;;;5.06;55.66;99836.03;6285609;20;2777409;-49
2022/02/20 01:45:44;;;;;;;;;13.80;10.60;;;;;5.15;55.33;99823.31;6310951;20;2781977;-47
2022/02/20 01:48:12;;;;;;;;;11.00;10.00;;;;;4.96;56.02;99823.13;6281944;20;2779568;-47
2022/02/20 01:50:40;;;;;;;;;20.00;12.00;;;;;5.19;55.24;99827.59;6284636;20;2812994;-44
2022/02/20 01:53:11;;;;;;;;;12.83;10.00;;;;;5.04;55.55;99824.56;6326852;20;1819051;-43
2022/02/20 01:55:40;;;;;;;;;18.00;11.00;;;;;4.92;56.11;99819.69;6284076;20;2800315;-46
2022/02/20 01:58:08;;;;;;;;;14.50;13.00;;;;;5.07;55.94;99821.78;6282591;20;2798246;-44
2022/02/20 02:00:35;;;;;;;;;18.00;14.00;;;;;4.87;56.53;99813.69;6283204;20;2797190;-42
2022/02/20 02:03:05;;;;;;;;;15.60;11.20;;;;;4.92;58.13;99811.72;6308461;20;2795146;-44
2022/02/20 02:05:33;;;;;;;;;12.50;11.50;;;;;5.16;57.13;99812.63;6284649;20;2791970;-44
2022/02/20 02:08:01;;;;;;;;;14.00;12.00;;;;;5.05;57.90;99799.72;6282898;20;2786738;-45
2022/02/20 02:10:28;;;;;;;;;12.00;10.00;;;;;5.15;57.66;99810.00;6284689;20;2776375;-44
2022/02/20 02:12:58;;;;;;;;;13.80;11.00;;;;;4.98;58.44;99802.66;6306969;20;2789955;-45
2022/02/20 02:15:27;;;;;;;;;15.00;13.00;;;;;5.21;57.50;99805.34;6285343;20;2802347;-45
2022/02/20 02:17:56;;;;;;;;;17.00;14.80;;;;;5.34;57.60;99795.06;6339403;20;2825247;-45
2022/02/20 02:20:25;;;;;;;;;18.00;14.00;;;;;4.96;58.20;99800.03;6281720;20;3558669;-44
2022/02/20 02:22:53;;;;;;;;;13.00;13.00;;;;;5.14;57.92;99798.50;6313259;20;2788835;-43
2022/02/20 02:25:21;;;;;;;;;18.00;12.00;;;;;5.06;57.44;99793.47;6284525;20;2802419;-43
2022/02/20 02:27:50;;;;;;;;;25.67;15.00;;;;;5.16;57.17;99785.13;6284346;20;3565839;-43
2022/02/20 02:30:18;;;;;;;;;20.67;14.00;;;;;5.12;57.02;99780.84;6313333;20;3539972;-47
2022/02/20 02:32:48;;;;;;;;;19.40;13.80;;;;;5.01;57.38;99778.59;6336504;20;2805658;-45
2022/02/20 02:35:16;;;;;;;;;18.00;16.33;;;;;4.82;58.16;99765.13;6284738;20;3556496;-45
2022/02/20 02:37:45;;;;;;;;;21.33;15.67;;;;;5.01;57.80;99767.94;6314723;20;3545184;-44
2022/02/20 02:40:14;;;;;;;;;17.00;14.00;;;;;5.01;57.90;99758.16;6312207;20;3529451;-43
2022/02/20 02:42:42;;;;;;;;;21.33;18.00;;;;;5.11;57.75;99760.47;6312849;20;3566886;-43
2022/02/20 02:45:10;;;;;;;;;19.00;15.00;;;;;4.99;58.43;99761.81;6318700;20;2814865;-45
2022/02/20 02:47:39;;;;;;;;;22.00;17.00;;;;;5.13;58.34;99758.63;6284290;20;3556207;-51
2022/02/20 02:50:08;;;;;;;;;18.33;15.67;;;;;5.12;58.41;99756.91;6313004;20;3552321;-49
2022/02/20 02:52:37;;;;;;;;;21.00;16.00;;;;;4.95;59.64;99750.44;6311832;20;3553427;-50
2022/02/20 02:55:07;;;;;;;;;20.33;17.00;;;;;4.75;60.60;99756.47;6314811;20;3560773;-48
2022/02/20 02:57:34;;;;;;;;;21.50;14.50;;;;;4.67;61.41;99758.56;6313558;20;2829587;-51
2022/02/20 03:00:05;;;;;;;;;18.00;15.67;;;;;4.77;61.50;99759.94;6281111;20;3552335;-51
2022/02/20 03:02:33;;;;;;;;;16.00;13.50;;;;;4.82;61.82;99759.78;6315772;20;2825274;-52
2022/02/20 03:05:04;;;;;;;;;23.17;16.83;;;;;4.53;62.03;99761.72;6305359;20;2838821;-48
2022/02/20 03:07:33;;;;;;;;;22.33;18.00;;;;;4.54;61.08;99758.13;6313720;20;3556613;-52
2022/02/20 03:10:02;;;;;;;;;24.00;20.33;;;;;4.48;61.26;99766.31;6278257;20;3554408;-50
2022/02/20 03:12:30;;;;;;;;;23.00;21.00;;;;;4.15;62.08;99769.22;6284532;20;2836224;-51
2022/02/20 03:14:58;;;;;;;;;38.50;31.00;;;;;4.03;61.96;99761.69;6279556;20;2500279;-53
2022/02/20 03:17:30;;;;;;;;;43.00;30.33;;;;;3.77;64.04;99772.28;6281072;20;2875322;-52
2022/02/20 03:19:58;;;;;;;;;32.00;27.00;;;;;3.76;64.35;99766.09;6309309;20;2852329;-51
2022/02/20 03:22:26;;;;;;;;;32.50;25.00;;;;;3.93;63.04;99762.91;6278832;20;2846122;-49
2022/02/20 03:24:56;;;;;;;;;46.00;34.00;;;;;3.89;64.30;99761.25;6278770;20;2877408;-53
2022/02/20 03:27:25;;;;;;;;;32.00;29.00;;;;;3.91;65.20;99759.41;6313796;20;2860715;-51
2022/02/20 03:29:55;;;;;;;;;39.00;29.00;;;;;3.62;66.26;99769.19;6278608;20;2872343;-51
2022/02/20 03:32:22;;;;;;;;;22.50;21.00;;;;;3.61;66.61;99762.16;6313317;20;2498200;-52
2022/02/20 03:34:50;;;;;;;;;26.00;24.00;;;;;3.59;66.50;99763.13;6283917;20;2827322;-49
2022/02/20 03:37:19;;;;;;;;;27.50;26.00;;;;;3.71;66.80;99758.31;6279194;20;2498191;-51
2022/02/20 03:39:47;;;;;;;;;18.33;16.00;;;;;3.42;68.60;99766.28;6278207;20;3542943;-53
2022/02/20 03:42:15;;;;;;;;;31.00;20.50;;;;;3.71;67.54;99768.91;6314718;20;2850407;-44
2022/02/20 03:44:44;;;;;;;;;35.00;27.00;;;;;3.39;68.26;99767.25;6281961;20;2862783;-46
2022/02/20 03:47:11;;;;;;;;;32.00;20.00;;;;;3.57;68.39;99760.50;6311644;20;2500807;-44
2022/02/20 03:49:40;;;;;;;;;30.00;19.33;;;;;3.73;67.18;99756.44;6280006;20;3586787;-45
2022/02/20 03:52:09;;;;;;;;;22.67;20.00;;;;;3.69;67.50;99744.19;6280946;20;3556480;-47
2022/02/20 03:54:37;;;;;;;;;20.00;19.00;;;;;3.64;67.56;99745.28;6310100;20;2817082;-49
2022/02/20 03:57:06;;;;;;;;;30.67;23.67;;;;;3.54;68.00;99744.69;6312320;20;3598168;-49
2022/02/20 03:59:34;;;;;;;;;24.00;16.50;;;;;3.31;68.65;99737.44;6282158;20;2844069;-52
2022/02/20 04:02:02;;;;;;;;;24.00;20.00;;;;;3.13;69.06;99738.88;6279304;20;2822198;-48
2022/02/20 04:04:30;;;;;;;;;34.00;23.00;;;;;2.70;71.82;99745.44;6280078;20;2844050;-51
2022/02/20 04:06:57;;;;;;;;;30.50;22.50;;;;;2.93;71.23;99736.84;6279514;20;2500289;-54
2022/02/20 04:09:26;;;;;;;;;33.00;26.00;;;;;2.91;71.01;99733.34;6281214;20;3592066;-53
2022/02/20 04:11:54;;;;;;;;;33.00;27.00;;;;;3.24;70.19;99747.41;6283051;20;2850491;-52
2022/02/20 04:14:22;;;;;;;;;29.00;23.00;;;;;3.00;70.67;99742.81;6283552;20;2801344;-51
2022/02/20 04:16:51;;;;;;;;;36.50;28.50;;;;;2.57;71.82;99746.72;6279984;20;2849238;-53
2022/02/20 04:19:20;;;;;;;;;37.50;33.00;;;;;2.76;71.46;99737.31;6280600;20;2856614;-53
2022/02/20 04:21:48;;;;;;;;;31.00;28.00;;;;;2.96;70.87;99733.22;6284190;20;2500702;-53
2022/02/20 04:24:16;;;;;;;;;26.00;23.00;;;;;2.88;70.97;99732.59;6276525;20;2500316;-51
2022/02/20 04:26:46;;;;;;;;;23.40;11.60;;;;;2.88;71.16;99735.22;6305741;20;2808668;-50
2022/02/20 04:29:17;;;;;;;;;23.33;19.67;;;;;3.14;69.94;99740.63;6304312;20;2833855;-49
2022/02/20 04:31:46;;;;;;;;;29.00;23.00;;;;;3.00;70.48;99737.50;6308577;20;3573177;-51
2022/02/20 04:34:15;;;;;;;;;25.33;19.67;;;;;2.96;70.91;99730.56;6311294;20;3558629;-51
2022/02/20 04:36:43;;;;;;;;;26.00;21.50;;;;;3.03;70.90;99734.78;6278932;20;2824223;-50
2022/02/20 04:39:12;;;;;;;;;23.67;18.00;;;;;2.85;71.84;99739.72;6280026;20;3562134;-48
2022/02/20 04:41:40;;;;;;;;;19.67;15.67;;;;;3.07;71.25;99744.38;6278785;20;3558561;-47
2022/02/20 04:44:09;;;;;;;;;22.50;16.00;;;;;3.06;70.91;99738.19;6312032;20;2808621;-50
2022/02/20 04:46:37;;;;;;;;;22.33;18.33;;;;;2.90;70.98;99738.69;6280575;20;3547302;-47
2022/02/20 04:49:08;;;;;;;;;22.00;22.00;;;;;2.61;72.44;99740.41;6307968;20;2500283;-48
2022/02/20 04:51:36;;;;;;;;;27.00;25.50;;;;;2.11;74.16;99737.38;6280382;20;2500297;-49
2022/02/20 04:54:04;;;;;;;;;27.00;22.00;;;;;2.45;73.19;99747.94;6278690;20;2500271;-47
2022/02/20 04:56:33;;;;;;;;;29.00;19.00;;;;;2.49;72.02;99746.91;6281157;20;3568975;-48
2022/02/20 04:59:01;;;;;;;;;27.00;21.00;;;;;2.70;72.11;99745.44;6281069;20;2835741;-48
2022/02/20 05:01:29;;;;;;;;;23.00;19.00;;;;;2.27;73.65;99736.06;6279705;20;2819011;-52
2022/02/20 05:03:58;;;;;;;;;22.33;19.33;;;;;2.27;74.13;99733.41;6278201;20;3549756;-48
2022/02/20 05:06:27;;;;;;;;;18.00;16.00;;;;;2.43;74.37;99736.50;6311863;20;3551374;-46
2022/02/20 05:08:56;;;;;;;;;23.50;22.50;;;;;2.23;74.80;99741.47;6311806;20;2841964;-49
2022/02/20 05:11:27;;;;;;;;;27.33;21.33;;;;;2.33;75.35;99745.59;6280023;20;3571090;-49
2022/02/20 05:13:58;;;;;;;;;24.67;19.67;;;;;2.46;76.08;99751.44;6310997;20;3567027;-49
2022/02/20 05:16:30;;;;;;;;;21.50;19.00;;;;;2.40;76.07;99745.41;6284795;20;2827593;-53
2022/02/20 05:19:02;;;;;;;;;28.00;23.33;;;;;2.61;76.50;99746.59;6283132;20;3573560;-43
2022/02/20 05:21:31;;;;;;;;;28.00;24.00;;;;;2.72;76.85;99746.28;6282124;20;2500279;-45
2022/02/20 05:23:59;;;;;;;;;34.00;30.00;;;;;2.64;77.75;99749.16;6283742;20;3581497;-43
2022/02/20 05:26:27;;;;;;;;;53.00;44.50;;;;;3.09;76.44;99753.16;6280112;20;2503429;-46
2022/02/20 05:28:57;;;;;;;;;67.33;49.33;;;;;2.76;77.93;99744.41;6284047;20;2875415;-50
2022/02/20 05:31:26;;;;;;;;;50.50;43.50;;;;;2.66;79.46;99743.81;6314488;20;2863869;-48
2022/02/20 05:33:55;;;;;;;;;49.00;37.00;;;;;2.92;78.71;99745.69;6284616;20;2876414;-50
2022/02/20 05:36:24;;;;;;;;;59.50;45.00;;;;;2.64;80.29;99735.03;6315241;20;2860794;-47
2022/02/20 05:38:53;;;;;;;;;20.00;17.00;;;;;2.84;80.57;99743.28;6284464;20;3551254;-49
2022/02/20 05:41:21;;;;;;;;;23.50;20.50;;;;;3.02;81.24;99733.03;6318162;20;2817977;-52
2022/02/20 05:43:50;;;;;;;;;17.00;15.00;;;;;3.03;81.32;99733.00;6286115;20;3540919;-47
2022/02/20 05:46:19;;;;;;;;;21.33;15.33;;;;;3.23;81.09;99735.03;6314608;20;2811723;-50
2022/02/20 05:48:46;;;;;;;;;22.00;16.00;;;;;3.29;81.22;99740.16;6316725;20;2829478;-43
2022/02/20 05:51:15;;;;;;;;;15.00;15.00;;;;;3.22;81.50;99738.59;6282971;20;3527344;-44
2022/02/20 05:53:44;;;;;;;;;16.33;16.33;;;;;3.29;82.41;99739.25;6313418;20;2821183;-44
2022/02/20 05:56:12;;;;;;;;;20.00;16.00;;;;;3.28;82.01;99738.41;6315060;20;3556461;-43
2022/02/20 05:58:40;;;;;;;;;23.50;20.00;;;;;3.34;82.60;99739.13;6312915;20;2829405;-51
2022/02/20 06:01:08;;;;;;;;;22.50;21.00;;;;;3.48;82.03;99742.25;6282767;20;2827513;-50
2022/02/20 06:03:38;;;;;;;;;27.67;21.00;;;;;3.26;81.81;99728.75;6301874;20;2823174;-52
2022/02/20 06:06:06;;;;;;;;;20.00;16.00;;;;;3.47;81.80;99729.88;6318538;20;1967049;-52
2022/02/20 06:08:35;;;;;;;;;23.00;18.00;;;;;3.42;82.05;99732.69;6316903;20;2824209;-53
2022/02/20 06:11:03;;;;;;;;;24.00;15.33;;;;;3.37;82.75;99728.41;6286106;20;3566909;-49
2022/02/20 06:13:32;;;;;;;;;24.67;16.00;;;;;3.62;84.08;99726.72;6317108;20;3572089;-51
2022/02/20 06:16:01;;;;;;;;;36.00;27.00;;;;;3.63;82.77;99723.13;6317745;20;2850290;-47
2022/02/20 06:18:29;;;;;;;;;55.50;42.00;;;;;3.82;82.09;99723.41;6280343;20;2503373;-44
2022/02/20 06:20:57;;;;;;;;;23.50;19.00;;;;;3.87;81.69;99726.78;6283706;20;2614917;-46
2022/02/20 06:23:25;;;;;;;;;20.67;17.00;;;;;3.89;82.70;99713.44;6284349;20;3554422;-45
2022/02/20 06:25:55;;;;;;;;;11.40;9.80;;;;;3.66;84.20;99712.44;6338049;20;2788833;-44
2022/02/20 06:28:24;;;;;;;;;43.50;32.50;;;;;3.92;83.98;99713.34;6283512;20;2865879;-44
2022/02/20 06:30:52;;;;;;;;;28.50;25.00;;;;;4.27;83.06;99703.28;6283066;20;2846094;-43
2022/02/20 06:33:20;;;;;;;;;12.00;9.00;;;;;4.40;83.71;99700.13;6285573;20;2772160;-44
2022/02/20 06:35:49;;;;;;;;;8.75;6.50;;;;;4.73;83.35;99698.94;6278096;20;1815984;-44
2022/02/20 06:38:18;;;;;;;;;13.00;10.80;;;;;4.55;84.27;99704.00;6335604;20;2766923;-44
2022/02/20 06:40:47;;;;;;;;;13.50;9.50;;;;;4.94;83.47;99711.44;6284073;20;2773274;-44
2022/02/20 06:43:15;;;;;;;;;17.50;9.00;;;;;4.92;83.77;99705.28;6282763;20;2784626;-45
2022/02/20 06:45:42;;;;;;;;;11.00;9.00;;;;;5.13;83.33;99706.25;6285687;20;2759651;-44
2022/02/20 06:48:10;;;;;;;;;13.50;10.50;;;;;5.33;82.95;99718.78;6315333;20;2782323;-49
2022/02/20 06:50:38;;;;;;;;;17.00;13.50;;;;;5.69;82.70;99721.78;6285439;20;2820202;-49
2022/02/20 06:53:06;;;;;;;;;17.67;13.67;;;;;5.62;82.07;99724.75;6283287;20;3530490;-46
2022/02/20 06:55:34;;;;;;;;;28.50;27.50;;;;;6.27;79.83;99723.81;6310694;20;2500290;-46
2022/02/20 06:58:03;;;;;;;;;35.33;25.00;;;;;6.81;76.98;99716.94;6280083;20;2868076;-47
2022/02/20 07:00:32;;;;;;;;;23.00;14.00;;;;;7.42;74.04;99715.88;6312243;20;3577349;-47
2022/02/20 07:03:00;;;;;;;;;17.00;14.00;;;;;7.64;72.92;99710.38;6314955;20;2701292;-45
2022/02/20 07:05:29;;;;;;;;;6.75;6.75;;;;;7.75;71.65;99708.97;6300208;20;1803464;-46
2022/02/20 07:08:00;;;;;;;;;12.00;9.43;;;;;8.05;70.18;99694.03;6355742;20;1802494;-47
2022/02/20 07:10:30;;;;;;;;;9.20;7.40;;;;;8.06;69.49;99694.94;6337553;20;2749342;-45
2022/02/20 07:12:58;;;;;;;;;12.00;7.50;;;;;8.66;68.04;99691.81;6313691;20;2764868;-46
2022/02/20 07:15:26;;;;;;;;;9.00;7.00;;;;;9.31;64.93;99694.50;6287326;20;2736796;-49
2022/02/20 07:17:54;;;;;;;;;8.00;7.00;;;;;9.31;65.59;99694.50;6312797;20;2742018;-49
2022/02/20 07:20:22;;;;;;;;;8.00;6.50;;;;;9.14;66.46;99690.97;6282784;20;2752349;-45
2022/02/20 07:22:50;;;;;;;;;8.50;7.25;;;;;8.65;70.39;99695.44;6298224;20;1810790;-46
2022/02/20 07:25:20;;;;;;;;;8.25;4.50;;;;;8.70;67.71;99690.72;6331717;20;1811808;-46
2022/02/20 07:27:53;;;;;;;;;8.40;8.40;;;;;8.98;67.63;99688.25;6335393;20;2746153;-45
2022/02/20 07:30:28;;;;;;;;;8.71;4.00;;;;;8.62;67.82;99685.78;6352778;20;1800419;-45
2022/02/20 07:33:04;;;;;;;;;8.00;7.00;;;;;8.74;68.28;99692.25;6332321;20;1819378;-47
2022/02/20 07:35:33;;;;;;;;;7.00;5.00;;;;;7.97;69.93;99679.34;6317664;20;2750299;-53
2022/02/20 07:38:01;;;;;;;;;3.50;3.50;;;;;8.22;69.72;99690.50;6284773;20;2743983;-50
2022/02/20 07:40:32;;;;;;;;;7.17;7.17;;;;;8.04;70.22;99686.13;6329668;20;1799810;-51
2022/02/20 07:43:00;;;;;;;;;8.00;6.00;;;;;7.68;71.92;99685.19;6287366;20;2745123;-53
2022/02/20 07:45:31;;;;;;;;;9.00;7.33;;;;;8.77;68.13;99684.94;6330687;20;1796134;-52
2022/02/20 07:48:03;;;;;;;;;8.25;4.00;;;;;8.53;68.67;99687.13;6304745;20;1825030;-47
2022/02/20 07:50:36;;;;;;;;;6.00;4.00;;;;;8.58;68.29;99684.19;6318247;20;2756638;-46
2022/02/20 07:53:07;;;;;;;;;4.00;4.00;;;;;8.60;67.94;99681.44;6300659;20;1815020;-44
2022/02/20 07:55:35;;;;;;;;;4.00;4.00;;;;;8.57;67.64;99680.66;6318044;20;2751277;-46
2022/02/20 07:58:11;;;;;;;;;5.00;5.00;;;;;8.52;67.62;99687.19;6284452;20;2756520;-46
2022/02/20 08:00:39;;;;;;;;;7.50;6.00;;;;;8.27;68.19;99687.63;6286955;20;2748296;-49
2022/02/20 08:03:09;;;;;;;;;10.00;8.40;;;;;8.50;68.14;99689.09;6310647;20;2752570;-54
2022/02/20 08:05:37;;;;;;;;;12.50;8.00;;;;;8.57;67.99;99683.31;6318276;20;2758781;-54
2022/02/20 08:08:05;;;;;;;;;11.50;8.50;;;;;8.87;66.97;99689.78;6281764;20;2767151;-53
2022/02/20 08:10:35;;;;;;;;;14.60;10.00;;;;;8.67;66.92;99686.38;6311146;20;2806502;-53
2022/02/20 08:13:03;;;;;;;;;9.50;9.00;;;;;8.53;67.97;99695.16;6304118;20;1819323;-51
2022/02/20 08:15:31;;;;;;;;;10.00;8.50;;;;;8.67;69.03;99702.44;6318650;20;2759771;-54
2022/02/20 08:17:59;;;;;;;;;13.50;8.00;;;;;8.33;69.57;99697.97;6290292;20;2764855;-49
2022/02/20 08:20:26;;;;;;;;;18.00;12.00;;;;;8.11;70.10;99699.09;6278414;20;2800329;-52
2022/02/20 08:22:54;;;;;;;;;14.00;14.00;;;;;8.07;71.65;99693.97;6283471;20;2793010;-46
2022/02/20 08:25:24;;;;;;;;;9.80;9.80;;;;;7.68;72.25;99695.03;6306764;20;2748293;-53
2022/02/20 08:27:54;;;;;;;;;12.00;11.00;;;;;8.24;70.44;99699.34;6310378;20;2788879;-47
2022/02/20 08:30:23;;;;;;;;;9.60;8.60;;;;;9.01;68.59;99704.16;6305480;20;2763803;-51
2022/02/20 08:32:53;;;;;;;;;10.00;8.00;;;;;8.46;69.29;99709.81;6339893;20;2771279;-47
2022/02/20 08:35:21;;;;;;;;;7.00;3.00;;;;;8.79;68.88;99725.00;6284484;20;2761714;-49
2022/02/20 08:37:52;;;;;;;;;11.00;7.83;;;;;8.26;69.09;99724.16;6324434;20;1808689;-51
2022/02/20 08:40:20;;;;;;;;;4.67;0.00;;;;;8.55;68.88;99720.00;6284820;20;3435709;-53
2022/02/20 08:42:52;;;;;;;;;10.14;9.00;;;;;8.16;70.35;99732.75;6358597;20;1797804;-50
2022/02/20 08:45:23;;;;;;;;;8.83;8.67;;;;;8.72;69.03;99723.63;6356536;20;1819023;-50
2022/02/20 08:48:11;;;;;;;;;13.00;12.00;;;;;7.97;70.53;99747.03;6278864;20;2788925;-52
2022/02/20 08:50:54;;;;;;;;;12.71;9.29;;;;;7.85;71.72;99734.31;6328209;20;1810472;-46
2022/02/20 08:53:22;;;;;;;;;13.00;10.00;;;;;7.92;71.59;99738.38;6320429;20;2784623;-44
2022/02/20 08:55:49;;;;;;;;;14.50;10.50;;;;;7.79;70.77;99746.13;6290186;20;2787903;-46
2022/02/20 08:58:17;;;;;;;;;11.50;9.00;;;;;8.10;70.58;99753.50;6293541;20;2752625;-46
2022/02/20 09:00:46;;;;;;;;;10.25;7.75;;;;;8.09;70.96;99765.16;6301444;20;1814078;-45
2022/02/20 09:03:16;;;;;;;;;7.67;7.17;;;;;8.20;70.22;99767.28;6357005;20;1817101;-45
2022/02/20 09:05:44;;;;;;;;;9.00;6.50;;;;;8.23;70.28;99766.25;6291056;20;2739841;-46
2022/02/20 09:08:12;;;;;;;;;12.00;9.00;;;;;8.71;71.60;99772.72;6289384;20;2774369;-45
2022/02/20 09:10:40;;;;;;;;;6.00;6.00;;;;;8.32;69.44;99772.03;6294610;20;2736725;-45
2022/02/20 09:13:10;;;;;;;;;11.75;8.00;;;;;8.49;69.45;99773.84;6339661;20;1807711;-47
2022/02/20 09:15:38;;;;;;;;;9.00;8.00;;;;;8.82;67.88;99786.44;6321292;20;2748304;-45
2022/02/20 09:18:06;;;;;;;;;6.00;6.00;;;;;8.52;68.03;99779.03;6290192;20;2751534;-46
2022/02/20 09:20:35;;;;;;;;;7.50;5.00;;;;;8.86;67.39;99781.78;6292314;20;2745197;-45
2022/02/20 09:23:07;;;;;;;;;6.50;6.50;;;;;8.77;66.27;99783.13;6290874;20;2735835;-50
2022/02/20 09:25:35;;;;;;;;;7.50;7.00;;;;;8.71;66.24;99788.78;6307561;20;1808909;-47
2022/02/20 09:28:04;;;;;;;;;6.00;6.00;;;;;8.89;66.52;99784.28;6323455;20;2741914;-49
2022/02/20 09:30:34;;;;;;;;;8.75;7.00;;;;;9.09;65.58;99788.59;6339360;20;1808710;-49
2022/02/20 09:33:02;;;;;;;;;6.25;6.00;;;;;9.52;64.78;99788.91;6337353;20;1814927;-50
2022/02/20 09:35:30;;;;;;;;;5.00;5.00;;;;;8.88;65.71;99788.78;6321582;20;2742977;-46
2022/02/20 09:37:58;;;;;;;;;12.00;8.00;;;;;9.48;64.49;99779.28;6321600;20;2760811;-48
2022/02/20 09:40:26;;;;;;;;;12.00;9.00;;;;;8.99;64.83;99778.34;6282036;20;2755553;-47
2022/02/20 09:42:55;;;;;;;;;8.50;7.00;;;;;9.04;65.21;99786.16;6292385;20;2734638;-50
2022/02/20 09:45:23;;;;;;;;;11.25;7.75;;;;;9.49;64.90;99783.72;6337563;20;1806678;-49
2022/02/20 09:47:51;;;;;;;;;11.00;8.00;;;;;9.59;63.81;99791.16;6320784;20;2761857;-47
2022/02/20 09:50:19;;;;;;;;;10.00;8.00;;;;;10.04;61.57;99796.69;6286548;20;2769088;-48
2022/02/20 09:52:47;;;;;;;;;9.00;8.00;;;;;10.74;60.75;99787.19;6291455;20;2746097;-54
2022/02/20 09:55:17;;;;;;;;;9.33;8.50;;;;;10.72;60.17;99790.94;6328210;20;1804481;-54
2022/02/20 09:57:45;;;;;;;;;9.00;9.00;;;;;10.77;59.50;99787.00;6292638;20;2741987;-53
2022/02/20 10:00:17;;;;;;;;;8.00;8.00;;;;;11.10;59.16;99790.38;6328082;20;1796191;-52
2022/02/20 10:02:46;;;;;;;;;8.50;4.00;;;;;11.28;57.64;99793.75;6320222;20;2746127;-54
2022/02/20 10:05:23;;;;;;;;;12.00;9.00;;;;;11.21;58.24;99802.19;6289032;20;2765885;-54
2022/02/20 10:07:53;;;;;;;;;8.75;7.00;;;;;10.60;58.66;99797.88;6307528;20;1802925;-53
2022/02/20 10:10:27;;;;;;;;;6.00;6.00;;;;;11.03;57.42;99795.25;6325994;20;2617995;-54
2022/02/20 10:13:04;;;;;;;;;8.00;5.00;;;;;10.87;56.97;99794.47;6328946;20;2483729;-49
2022/02/20 10:15:36;;;;;;;;;5.50;4.00;;;;;11.11;55.43;99802.84;6323000;20;2752338;-50
2022/02/20 10:18:14;;;;;;;;;6.50;4.50;;;;;10.72;54.45;99796.28;6290455;20;2752368;-51
2022/02/20 10:20:42;;;;;;;;;5.00;3.00;;;;;10.66;54.24;99786.75;6286602;20;2742982;-53
2022/02/20 10:23:13;;;;;;;;;4.50;3.50;;;;;10.14;55.36;99787.16;6288865;20;2746289;-50
2022/02/20 10:25:44;;;;;;;;;6.50;4.50;;;;;9.72;55.86;99774.41;6289297;20;2749337;-49
2022/02/20 10:28:12;;;;;;;;;4.00;4.00;;;;;10.10;55.94;99782.91;6288541;20;2756497;-53
2022/02/20 10:30:42;;;;;;;;;2.00;2.00;;;;;9.84;56.68;99785.28;6305277;20;1811975;-50
2022/02/20 10:33:19;;;;;;;;;3.00;3.00;;;;;9.44;57.89;99774.13;6318726;20;2748261;-52
2022/02/20 10:35:53;;;;;;;;;2.00;2.00;;;;;9.74;57.61;99775.16;6291612;20;2741945;-50
2022/02/20 10:38:25;;;;;;;;;3.00;2.00;;;;;9.70;58.54;99774.47;6289863;20;2751298;-53
2022/02/20 10:40:56;;;;;;;;;3.00;3.00;;;;;9.96;58.38;99767.63;6306142;20;1814401;-51
2022/02/20 10:43:40;;;;;;;;;3.00;3.00;;;;;9.88;58.70;99761.84;6321057;20;2747293;-53
2022/02/20 10:46:17;;;;;;;;;7.50;3.50;;;;;10.47;58.43;99764.69;6319346;20;2756504;-52
2022/02/20 10:48:49;;;;;;;;;7.00;5.00;;;;;10.21;59.79;99759.00;6282810;20;2745226;-50
2022/02/20 10:51:20;;;;;;;;;5.75;1.00;;;;;9.99;60.68;99750.50;6308240;20;1818146;-53
2022/02/20 10:53:50;;;;;;;;;9.00;3.50;;;;;9.66;62.13;99746.09;6319548;20;2754402;-51
2022/02/20 10:56:40;;;;;;;;;9.00;7.33;;;;;9.41;64.26;99741.28;6329848;20;1803867;-53
2022/02/20 10:59:08;;;;;;;;;7.00;6.00;;;;;9.81;63.89;99744.38;6288789;20;2746082;-51
2022/02/20 11:01:36;;;;;;;;;7.00;5.00;;;;;9.49;63.87;99736.34;6285609;20;2746112;-50
2022/02/20 11:04:10;;;;;;;;;5.50;4.00;;;;;9.54;65.29;99733.41;6288917;20;2736710;-51
2022/02/20 11:06:44;;;;;;;;;5.00;5.00;;;;;9.66;63.64;99722.88;6289057;20;2745165;-51
2022/02/20 11:09:13;;;;;;;;;6.00;5.00;;;;;9.89;62.69;99737.59;6288509;20;2736708;-52
2022/02/20 11:11:51;;;;;;;;;8.50;5.00;;;;;9.74;63.48;99725.09;6318672;20;2751311;-52
2022/02/20 11:14:21;;;;;;;;;6.75;4.75;;;;;10.08;61.96;99726.69;6305140;20;1813841;-52
2022/02/20 11:16:53;;;;;;;;;8.00;7.40;;;;;10.25;60.89;99714.94;6341897;20;2735708;-52
2022/02/20 11:19:25;;;;;;;;;10.50;7.50;;;;;10.66;60.13;99708.91;6319964;20;2746199;-51
2022/02/20 11:22:02;;;;;;;;;8.50;7.50;;;;;10.89;59.22;99709.31;6284265;20;2750359;-53
2022/02/20 11:24:33;;;;;;;;;5.00;5.00;;;;;10.94;58.58;99710.75;6287525;20;2750338;-52